sensor_id;sensor_type;location;lat;lon;timestamp;pressure;altitude;pressure_sealevel;temperature;humidity
15634;BME280;14654;48.898;8.308;2023-06-10T00:01:44;99805.31;;;19.74;82.63
15634;BME280;14654;48.898;8.308;2023-06-10T00:04:16;99805.31;;;19.74;82.76
15634;BME280;14654;48.898;8.308;2023-06-10T00:06:43;99801.25;;;19.68;83.26
15634;BME280;14654;48.898;8.308;2023-06-10T00:09:09;99791.78;;;19.65;82.77
15634;BME280;14654;48.898;8.308;2023-06-10T00:11:36;99800.66;;;19.63;82.33
15634;BME280;14654;48.898;8.308;2023-06-10T00:14:01;99794.81;;;19.58;83.59
15634;BME280;14654;48.898;8.308;2023-06-10T00:16:27;99793.94;;;19.57;83.39
15634;BME280;14654;48.898;8.308;2023-06-10T00:18:52;99789.88;;;19.52;83.95
15634;BME280;14654;48.898;8.308;2023-06-10T00:21:18;99801.22;;;19.52;83.11
15634;BME280;14654;48.898;8.308;2023-06-10T00:23:44;99797.66;;;19.53;83.41
15634;BME280;14654;48.898;8.308;2023-06-10T00:26:09;99799.38;;;19.54;82.77
15634;BME280;14654;48.898;8.308;2023-06-10T00:28:34;99793.44;;;19.50;82.26
15634;BME280;14654;48.898;8.308;2023-06-10T00:31:01;99793.34;;;19.52;82.45
15634;BME280;14654;48.898;8.308;2023-06-10T00:33:26;99804.19;;;19.46;81.80
15634;BME280;14654;48.898;8.308;2023-06-10T00:35:51;99792.50;;;19.52;81.82
15634;BME280;14654;48.898;8.308;2023-06-10T00:38:17;99792.19;;;19.58;80.63
15634;BME280;14654;48.898;8.308;2023-06-10T00:40:42;99793.13;;;19.57;80.55
15634;BME280;14654;48.898;8.308;2023-06-10T00:43:08;99793.19;;;19.55;80.53
15634;BME280;14654;48.898;8.308;2023-06-10T00:45:33;99790.56;;;19.55;80.95
15634;BME280;14654;48.898;8.308;2023-06-10T00:47:59;99782.69;;;19.55;81.79
15634;BME280;14654;48.898;8.308;2023-06-10T00:50:25;99779.66;;;19.63;79.22
15634;BME280;14654;48.898;8.308;2023-06-10T00:52:51;99779.59;;;19.64;79.21
15634;BME280;14654;48.898;8.308;2023-06-10T00:55:17;99781.69;;;19.74;78.60
15634;BME280;14654;48.898;8.308;2023-06-10T00:57:45;99783.47;;;19.73;80.16
15634;BME280;14654;48.898;8.308;2023-06-10T01:00:11;99781.00;;;19.70;79.63
15634;BME280;14654;48.898;8.308;2023-06-10T01:02:37;99777.38;;;19.73;78.13
15634;BME280;14654;48.898;8.308;2023-06-10T01:05:03;99773.66;;;19.77;77.51
15634;BME280;14654;48.898;8.308;2023-06-10T01:07:35;99775.59;;;19.73;77.50
15634;BME280;14654;48.898;8.308;2023-06-10T01:10:04;99782.28;;;19.79;77.15
15634;BME280;14654;48.898;8.308;2023-06-10T01:12:34;99783.97;;;19.80;76.84
15634;BME280;14654;48.898;8.308;2023-06-10T01:15:03;99781.44;;;19.78;76.75
15634;BME280;14654;48.898;8.308;2023-06-10T01:17:29;99778.81;;;19.78;76.43
15634;BME280;14654;48.898;8.308;2023-06-10T01:19:56;99764.47;;;19.84;76.06
15634;BME280;14654;48.898;8.308;2023-06-10T01:22:23;99771.28;;;19.88;76.03
15634;BME280;14654;48.898;8.308;2023-06-10T01:24:49;99774.16;;;20.00;75.30
15634;BME280;14654;48.898;8.308;2023-06-10T01:27:15;99787.78;;;20.06;74.94
15634;BME280;14654;48.898;8.308;2023-06-10T01:29:46;99780.31;;;20.15;74.84
15634;BME280;14654;48.898;8.308;2023-06-10T01:32:17;99782.78;;;20.18;74.71
15634;BME280;14654;48.898;8.308;2023-06-10T01:34:44;99783.72;;;20.17;74.85
15634;BME280;14654;48.898;8.308;2023-06-10T01:37:13;99786.69;;;20.10;75.25
15634;BME280;14654;48.898;8.308;2023-06-10T01:39:41;99787.19;;;20.17;74.83
15634;BME280;14654;48.898;8.308;2023-06-10T01:42:08;99787.78;;;20.22;74.63
15634;BME280;14654;48.898;8.308;2023-06-10T01:44:35;99787.78;;;20.22;74.62
15634;BME280;14654;48.898;8.308;2023-06-10T01:47:00;99784.47;;;20.19;75.12
15634;BME280;14654;48.898;8.308;2023-06-10T01:49:26;99784.22;;;20.23;74.84
15634;BME280;14654;48.898;8.308;2023-06-10T01:51:52;99789.59;;;20.36;74.43
15634;BME280;14654;48.898;8.308;2023-06-10T01:54:17;99793.84;;;20.39;74.38
15634;BME280;14654;48.898;8.308;2023-06-10T01:56:42;99789.78;;;20.33;74.37
15634;BME280;14654;48.898;8.308;2023-06-10T01:59:07;99795.78;;;20.35;74.57
15634;BME280;14654;48.898;8.308;2023-06-10T02:01:33;99789.84;;;20.32;74.61
15634;BME280;14654;48.898;8.308;2023-06-10T02:03:58;99791.00;;;20.42;74.64
15634;BME280;14654;48.898;8.308;2023-06-10T02:06:23;99798.06;;;20.41;74.59
15634;BME280;14654;48.898;8.308;2023-06-10T02:08:49;99795.53;;;20.40;74.76
15634;BME280;14654;48.898;8.308;2023-06-10T02:11:14;99801.03;;;20.35;74.57
15634;BME280;14654;48.898;8.308;2023-06-10T02:13:40;99802.72;;;20.36;74.53
15634;BME280;14654;48.898;8.308;2023-06-10T02:16:05;99804.78;;;20.31;74.73
15634;BME280;14654;48.898;8.308;2023-06-10T02:18:34;99811.81;;;20.31;74.98
15634;BME280;14654;48.898;8.308;2023-06-10T02:20:59;99803.38;;;20.25;75.75
15634;BME280;14654;48.898;8.308;2023-06-10T02:23:25;99797.41;;;20.22;75.30
15634;BME280;14654;48.898;8.308;2023-06-10T02:25:50;99806.34;;;20.19;75.72
15634;BME280;14654;48.898;8.308;2023-06-10T02:28:15;99810.81;;;20.17;75.78
15634;BME280;14654;48.898;8.308;2023-06-10T02:30:41;99812.34;;;20.21;75.07
15634;BME280;14654;48.898;8.308;2023-06-10T02:33:08;99810.75;;;20.19;75.61
15634;BME280;14654;48.898;8.308;2023-06-10T02:35:38;99805.84;;;20.13;76.73
15634;BME280;14654;48.898;8.308;2023-06-10T02:38:03;99818.47;;;20.06;77.51
15634;BME280;14654;48.898;8.308;2023-06-10T02:40:29;99821.19;;;19.88;79.40
15634;BME280;14654;48.898;8.308;2023-06-10T02:42:54;99826.41;;;19.72;80.05
15634;BME280;14654;48.898;8.308;2023-06-10T02:45:20;99829.63;;;19.61;80.61
15634;BME280;14654;48.898;8.308;2023-06-10T02:47:45;99831.88;;;19.36;81.92
15634;BME280;14654;48.898;8.308;2023-06-10T02:50:10;99836.22;;;19.19;82.76
15634;BME280;14654;48.898;8.308;2023-06-10T02:52:36;99833.13;;;18.93;84.03
15634;BME280;14654;48.898;8.308;2023-06-10T02:55:01;99835.06;;;18.72;85.71
15634;BME280;14654;48.898;8.308;2023-06-10T02:57:26;99835.28;;;18.67;86.51
15634;BME280;14654;48.898;8.308;2023-06-10T02:59:52;99841.78;;;18.60;86.60
15634;BME280;14654;48.898;8.308;2023-06-10T03:02:18;99844.44;;;18.58;87.18
15634;BME280;14654;48.898;8.308;2023-06-10T03:04:44;99834.97;;;18.56;87.10
15634;BME280;14654;48.898;8.308;2023-06-10T03:07:10;99839.69;;;18.49;87.04
15634;BME280;14654;48.898;8.308;2023-06-10T03:09:36;99845.69;;;18.51;86.40
15634;BME280;14654;48.898;8.308;2023-06-10T03:12:01;99843.38;;;18.45;87.92
15634;BME280;14654;48.898;8.308;2023-06-10T03:14:27;99854.06;;;18.40;88.84
15634;BME280;14654;48.898;8.308;2023-06-10T03:16:52;99857.66;;;18.38;88.17
15634;BME280;14654;48.898;8.308;2023-06-10T03:19:18;99851.75;;;18.34;88.29
15634;BME280;14654;48.898;8.308;2023-06-10T03:21:44;99855.50;;;18.28;88.58
15634;BME280;14654;48.898;8.308;2023-06-10T03:24:10;99856.75;;;18.21;88.74
15634;BME280;14654;48.898;8.308;2023-06-10T03:26:36;99855.19;;;18.17;89.42
15634;BME280;14654;48.898;8.308;2023-06-10T03:29:01;99857.78;;;18.17;89.63
15634;BME280;14654;48.898;8.308;2023-06-10T03:31:27;99861.47;;;18.13;90.20
15634;BME280;14654;48.898;8.308;2023-06-10T03:33:52;99860.13;;;18.04;90.55
15634;BME280;14654;48.898;8.308;2023-06-10T03:36:17;99860.13;;;18.04;90.34
15634;BME280;14654;48.898;8.308;2023-06-10T03:38:43;99865.47;;;18.03;90.41
15634;BME280;14654;48.898;8.308;2023-06-10T03:41:08;99866.50;;;17.98;90.77
15634;BME280;14654;48.898;8.308;2023-06-10T03:43:33;99866.50;;;17.98;91.31
15634;BME280;14654;48.898;8.308;2023-06-10T03:45:59;99870.00;;;17.99;90.46
15634;BME280;14654;48.898;8.308;2023-06-10T03:48:24;99868.28;;;17.98;90.52
15634;BME280;14654;48.898;8.308;2023-06-10T03:50:49;99870.94;;;17.96;90.42
15634;BME280;14654;48.898;8.308;2023-06-10T03:53:18;99865.69;;;17.98;90.53
15634;BME280;14654;48.898;8.308;2023-06-10T03:55:43;99876.53;;;18.08;90.38
15634;BME280;14654;48.898;8.308;2023-06-10T03:58:09;99870.66;;;18.22;89.50
15634;BME280;14654;48.898;8.308;2023-06-10T04:00:38;99876.31;;;18.32;88.88
15634;BME280;14654;48.898;8.308;2023-06-10T04:03:07;99893.28;;;18.42;89.10
15634;BME280;14654;48.898;8.308;2023-06-10T04:05:34;99882.34;;;18.34;88.98
15634;BME280;14654;48.898;8.308;2023-06-10T04:08:00;99890.47;;;18.27;89.50
15634;BME280;14654;48.898;8.308;2023-06-10T04:10:26;99878.53;;;18.22;89.47
15634;BME280;14654;48.898;8.308;2023-06-10T04:12:52;99878.88;;;18.14;90.46
15634;BME280;14654;48.898;8.308;2023-06-10T04:15:17;99888.34;;;18.17;90.17
15634;BME280;14654;48.898;8.308;2023-06-10T04:17:43;99892.91;;;18.13;90.14
15634;BME280;14654;48.898;8.308;2023-06-10T04:20:08;99889.66;;;18.27;90.12
15634;BME280;14654;48.898;8.308;2023-06-10T04:22:34;99888.53;;;18.50;89.42
15634;BME280;14654;48.898;8.308;2023-06-10T04:25:00;99886.63;;;18.54;89.01
15634;BME280;14654;48.898;8.308;2023-06-10T04:27:25;99883.44;;;18.47;89.14
15634;BME280;14654;48.898;8.308;2023-06-10T04:29:51;99881.09;;;18.41;89.87
15634;BME280;14654;48.898;8.308;2023-06-10T04:32:16;99888.19;;;18.39;89.49
15634;BME280;14654;48.898;8.308;2023-06-10T04:34:41;99894.28;;;18.39;89.54
15634;BME280;14654;48.898;8.308;2023-06-10T04:37:07;99895.47;;;18.51;89.33
15634;BME280;14654;48.898;8.308;2023-06-10T04:39:33;99891.34;;;18.82;88.53
15634;BME280;14654;48.898;8.308;2023-06-10T04:41:59;99893.13;;;19.34;86.38
15634;BME280;14654;48.898;8.308;2023-06-10T04:44:25;99893.50;;;19.78;84.85
15634;BME280;14654;48.898;8.308;2023-06-10T04:46:50;99894.97;;;20.32;82.38
15634;BME280;14654;48.898;8.308;2023-06-10T04:49:16;99899.91;;;20.68;81.35
15634;BME280;14654;48.898;8.308;2023-06-10T04:51:41;99900.72;;;21.01;79.45
15634;BME280;14654;48.898;8.308;2023-06-10T04:54:06;99898.31;;;21.27;78.13
15634;BME280;14654;48.898;8.308;2023-06-10T04:56:32;99895.53;;;21.88;77.24
15634;BME280;14654;48.898;8.308;2023-06-10T04:58:58;99902.66;;;21.86;76.05
15634;BME280;14654;48.898;8.308;2023-06-10T05:01:24;99910.41;;;21.74;77.12
15634;BME280;14654;48.898;8.308;2023-06-10T05:03:49;99903.44;;;22.44;75.26
15634;BME280;14654;48.898;8.308;2023-06-10T05:06:15;99898.47;;;22.93;73.71
15634;BME280;14654;48.898;8.308;2023-06-10T05:08:40;99914.22;;;23.07;73.64
15634;BME280;14654;48.898;8.308;2023-06-10T05:11:05;99908.81;;;23.36;72.16
15634;BME280;14654;48.898;8.308;2023-06-10T05:13:31;99905.34;;;24.12;70.84
15634;BME280;14654;48.898;8.308;2023-06-10T05:15:57;99899.34;;;23.97;70.32
15634;BME280;14654;48.898;8.308;2023-06-10T05:18:23;99904.06;;;24.42;69.55
15634;BME280;14654;48.898;8.308;2023-06-10T05:20:48;99904.50;;;24.84;68.47
15634;BME280;14654;48.898;8.308;2023-06-10T05:23:14;99904.94;;;25.14;67.51
15634;BME280;14654;48.898;8.308;2023-06-10T05:25:39;99902.25;;;25.61;66.83
15634;BME280;14654;48.898;8.308;2023-06-10T05:28:06;99902.94;;;25.97;66.11
15634;BME280;14654;48.898;8.308;2023-06-10T05:30:35;99909.72;;;25.44;66.74
15634;BME280;14654;48.898;8.308;2023-06-10T05:33:00;99913.56;;;25.51;67.44
15634;BME280;14654;48.898;8.308;2023-06-10T05:35:25;99921.88;;;25.47;66.85
15634;BME280;14654;48.898;8.308;2023-06-10T05:37:51;99915.16;;;25.54;67.06
15634;BME280;14654;48.898;8.308;2023-06-10T05:40:16;99923.63;;;25.23;67.33
15634;BME280;14654;48.898;8.308;2023-06-10T05:42:41;99922.63;;;25.83;66.43
15634;BME280;14654;48.898;8.308;2023-06-10T05:45:07;99922.25;;;25.53;66.68
15634;BME280;14654;48.898;8.308;2023-06-10T05:47:32;99932.09;;;25.51;66.52
15634;BME280;14654;48.898;8.308;2023-06-10T05:49:58;99920.03;;;26.27;65.97
15634;BME280;14654;48.898;8.308;2023-06-10T05:52:23;99919.09;;;26.05;65.35
15634;BME280;14654;48.898;8.308;2023-06-10T05:54:50;99922.84;;;25.80;65.91
15634;BME280;14654;48.898;8.308;2023-06-10T05:57:15;99927.44;;;26.12;66.23
15634;BME280;14654;48.898;8.308;2023-06-10T05:59:40;99929.09;;;25.90;65.84
15634;BME280;14654;48.898;8.308;2023-06-10T06:02:06;99919.94;;;26.17;65.38
15634;BME280;14654;48.898;8.308;2023-06-10T06:04:31;99930.91;;;26.01;65.94
15634;BME280;14654;48.898;8.308;2023-06-10T06:06:57;99939.41;;;24.41;67.52
15634;BME280;14654;48.898;8.308;2023-06-10T06:09:22;99937.19;;;23.71;70.28
15634;BME280;14654;48.898;8.308;2023-06-10T06:11:47;99940.25;;;22.86;71.47
15634;BME280;14654;48.898;8.308;2023-06-10T06:14:13;99940.97;;;22.48;73.11
15634;BME280;14654;48.898;8.308;2023-06-10T06:16:38;99942.22;;;22.28;73.63
15634;BME280;14654;48.898;8.308;2023-06-10T06:19:04;99934.47;;;22.94;72.87
15634;BME280;14654;48.898;8.308;2023-06-10T06:21:29;99942.16;;;22.84;72.72
15634;BME280;14654;48.898;8.308;2023-06-10T06:23:54;99950.41;;;23.33;72.10
15634;BME280;14654;48.898;8.308;2023-06-10T06:26:20;99949.81;;;23.14;72.95
15634;BME280;14654;48.898;8.308;2023-06-10T06:28:46;99943.19;;;24.12;70.74
15634;BME280;14654;48.898;8.308;2023-06-10T06:31:11;99948.56;;;24.85;69.54
15634;BME280;14654;48.898;8.308;2023-06-10T06:33:36;99946.25;;;24.06;70.29
15634;BME280;14654;48.898;8.308;2023-06-10T06:36:02;99945.66;;;23.38;72.33
15634;BME280;14654;48.898;8.308;2023-06-10T06:38:27;99949.34;;;23.87;71.29
15634;BME280;14654;48.898;8.308;2023-06-10T06:40:52;99946.16;;;24.08;70.47
15634;BME280;14654;48.898;8.308;2023-06-10T06:43:18;99951.69;;;23.79;71.50
15634;BME280;14654;48.898;8.308;2023-06-10T06:45:44;99951.22;;;23.85;71.85
15634;BME280;14654;48.898;8.308;2023-06-10T06:48:10;99945.50;;;24.17;70.83
15634;BME280;14654;48.898;8.308;2023-06-10T06:50:35;99953.88;;;24.48;69.34
15634;BME280;14654;48.898;8.308;2023-06-10T06:53:01;99956.03;;;23.41;72.35
15634;BME280;14654;48.898;8.308;2023-06-10T06:55:26;99955.16;;;23.40;72.92
15634;BME280;14654;48.898;8.308;2023-06-10T06:57:52;99955.09;;;23.14;73.54
15634;BME280;14654;48.898;8.308;2023-06-10T07:00:18;99948.25;;;23.12;73.79
15634;BME280;14654;48.898;8.308;2023-06-10T07:02:43;99945.88;;;22.94;74.62
15634;BME280;14654;48.898;8.308;2023-06-10T07:05:08;99945.00;;;23.21;74.89
15634;BME280;14654;48.898;8.308;2023-06-10T07:07:34;99950.84;;;23.52;74.11
15634;BME280;14654;48.898;8.308;2023-06-10T07:09:59;99938.34;;;23.93;73.10
15634;BME280;14654;48.898;8.308;2023-06-10T07:12:25;99955.50;;;23.49;73.99
15634;BME280;14654;48.898;8.308;2023-06-10T07:14:51;99939.28;;;24.05;72.80
15634;BME280;14654;48.898;8.308;2023-06-10T07:17:16;99947.53;;;24.75;71.18
15634;BME280;14654;48.898;8.308;2023-06-10T07:19:43;99950.38;;;24.47;71.34
15634;BME280;14654;48.898;8.308;2023-06-10T07:22:08;99956.53;;;24.96;70.87
15634;BME280;14654;48.898;8.308;2023-06-10T07:24:34;99956.56;;;25.19;70.46
15634;BME280;14654;48.898;8.308;2023-06-10T07:26:59;99949.97;;;25.72;68.49
15634;BME280;14654;48.898;8.308;2023-06-10T07:29:24;99955.19;;;25.38;69.86
15634;BME280;14654;48.898;8.308;2023-06-10T07:31:50;99944.44;;;25.17;70.09
15634;BME280;14654;48.898;8.308;2023-06-10T07:34:15;99957.16;;;25.47;69.95
15634;BME280;14654;48.898;8.308;2023-06-10T07:36:40;99941.03;;;25.73;69.87
15634;BME280;14654;48.898;8.308;2023-06-10T07:39:06;99943.31;;;25.89;69.81
15634;BME280;14654;48.898;8.308;2023-06-10T07:41:32;99948.13;;;25.50;70.96
15634;BME280;14654;48.898;8.308;2023-06-10T07:43:57;99944.53;;;25.85;69.34
15634;BME280;14654;48.898;8.308;2023-06-10T07:46:23;99949.22;;;25.47;70.22
15634;BME280;14654;48.898;8.308;2023-06-10T07:48:49;99937.38;;;25.40;71.18
15634;BME280;14654;48.898;8.308;2023-06-10T07:51:15;99941.50;;;25.55;70.82
15634;BME280;14654;48.898;8.308;2023-06-10T07:53:41;99934.53;;;25.66;70.78
15634;BME280;14654;48.898;8.308;2023-06-10T07:56:06;99943.44;;;25.42;71.18
15634;BME280;14654;48.898;8.308;2023-06-10T07:58:31;99932.84;;;25.65;70.92
15634;BME280;14654;48.898;8.308;2023-06-10T08:00:57;99929.47;;;25.85;70.91
15634;BME280;14654;48.898;8.308;2023-06-10T08:03:22;99932.44;;;26.03;70.16
15634;BME280;14654;48.898;8.308;2023-06-10T08:05:48;99940.31;;;25.60;69.96
15634;BME280;14654;48.898;8.308;2023-06-10T08:08:13;99947.06;;;25.05;71.49
15634;BME280;14654;48.898;8.308;2023-06-10T08:10:38;99957.41;;;25.08;72.47
15634;BME280;14654;48.898;8.308;2023-06-10T08:13:04;99934.88;;;25.50;71.59
15634;BME280;14654;48.898;8.308;2023-06-10T08:15:29;99946.47;;;25.83;70.23
15634;BME280;14654;48.898;8.308;2023-06-10T08:17:55;99945.78;;;25.34;70.39
15634;BME280;14654;48.898;8.308;2023-06-10T08:20:22;99949.00;;;25.26;72.02
15634;BME280;14654;48.898;8.308;2023-06-10T08:22:48;99931.38;;;25.49;71.02
15634;BME280;14654;48.898;8.308;2023-06-10T08:25:13;99933.75;;;25.41;71.09
15634;BME280;14654;48.898;8.308;2023-06-10T08:27:38;99925.88;;;25.64;70.65
15634;BME280;14654;48.898;8.308;2023-06-10T08:30:04;99932.00;;;25.64;70.84
15634;BME280;14654;48.898;8.308;2023-06-10T08:32:30;99924.88;;;25.42;70.24
15634;BME280;14654;48.898;8.308;2023-06-10T08:34:55;99929.84;;;25.69;70.14
15634;BME280;14654;48.898;8.308;2023-06-10T08:37:21;99925.97;;;25.74;70.37
15634;BME280;14654;48.898;8.308;2023-06-10T08:39:47;99924.53;;;25.58;69.67
15634;BME280;14654;48.898;8.308;2023-06-10T08:44:40;99927.06;;;25.71;69.79
15634;BME280;14654;48.898;8.308;2023-06-10T08:47:13;99917.28;;;26.06;68.89
15634;BME280;14654;48.898;8.308;2023-06-10T08:49:43;99919.34;;;26.13;68.64
15634;BME280;14654;48.898;8.308;2023-06-10T08:52:14;99922.47;;;26.07;68.98
15634;BME280;14654;48.898;8.308;2023-06-10T08:54:43;99915.50;;;25.61;68.70
15634;BME280;14654;48.898;8.308;2023-06-10T08:57:08;99922.00;;;25.68;68.07
15634;BME280;14654;48.898;8.308;2023-06-10T08:59:34;99914.75;;;25.81;67.32
15634;BME280;14654;48.898;8.308;2023-06-10T09:02:00;99918.38;;;25.80;67.47
15634;BME280;14654;48.898;8.308;2023-06-10T09:04:27;99915.59;;;25.93;67.37
15634;BME280;14654;48.898;8.308;2023-06-10T09:06:53;99913.06;;;26.03;67.32
15634;BME280;14654;48.898;8.308;2023-06-10T09:09:19;99914.56;;;25.62;67.95
15634;BME280;14654;48.898;8.308;2023-06-10T09:11:47;99905.50;;;25.76;68.19
15634;BME280;14654;48.898;8.308;2023-06-10T09:14:13;99917.41;;;25.81;68.60
15634;BME280;14654;48.898;8.308;2023-06-10T09:16:38;99903.94;;;25.62;67.41
15634;BME280;14654;48.898;8.308;2023-06-10T09:19:04;99903.94;;;25.73;68.08
15634;BME280;14654;48.898;8.308;2023-06-10T09:21:33;99906.69;;;25.71;67.47
15634;BME280;14654;48.898;8.308;2023-06-10T09:23:59;99908.25;;;25.85;67.03
15634;BME280;14654;48.898;8.308;2023-06-10T09:26:29;99910.78;;;25.87;67.13
15634;BME280;14654;48.898;8.308;2023-06-10T09:29:04;99908.00;;;26.00;67.61
15634;BME280;14654;48.898;8.308;2023-06-10T09:31:39;99906.22;;;26.12;66.81
15634;BME280;14654;48.898;8.308;2023-06-10T09:36:33;99911.34;;;26.25;66.80
15634;BME280;14654;48.898;8.308;2023-06-10T09:38:59;99897.16;;;26.14;66.71
15634;BME280;14654;48.898;8.308;2023-06-10T09:41:34;99892.53;;;26.28;66.32
15634;BME280;14654;48.898;8.308;2023-06-10T09:44:01;99897.06;;;26.16;67.08
15634;BME280;14654;48.898;8.308;2023-06-10T09:46:31;99895.69;;;26.10;66.13
15634;BME280;14654;48.898;8.308;2023-06-10T09:48:57;99898.72;;;26.17;66.81
15634;BME280;14654;48.898;8.308;2023-06-10T09:51:23;99889.69;;;26.20;66.34
15634;BME280;14654;48.898;8.308;2023-06-10T09:53:51;99910.16;;;25.95;65.82
15634;BME280;14654;48.898;8.308;2023-06-10T09:56:16;99896.34;;;26.14;66.05
15634;BME280;14654;48.898;8.308;2023-06-10T09:58:41;99898.16;;;25.91;65.39
15634;BME280;14654;48.898;8.308;2023-06-10T10:01:10;99892.69;;;26.03;65.97
15634;BME280;14654;48.898;8.308;2023-06-10T10:03:46;99909.31;;;26.06;65.55
15634;BME280;14654;48.898;8.308;2023-06-10T10:06:13;99897.25;;;26.24;64.82
15634;BME280;14654;48.898;8.308;2023-06-10T10:08:39;99884.38;;;26.08;65.53
15634;BME280;14654;48.898;8.308;2023-06-10T10:11:05;99907.28;;;25.98;65.29
15634;BME280;14654;48.898;8.308;2023-06-10T10:13:33;99881.59;;;26.21;65.60
15634;BME280;14654;48.898;8.308;2023-06-10T10:16:04;99896.50;;;26.33;65.65
15634;BME280;14654;48.898;8.308;2023-06-10T10:18:31;99902.31;;;26.60;65.34
15634;BME280;14654;48.898;8.308;2023-06-10T10:20:59;99903.34;;;26.47;65.14
15634;BME280;14654;48.898;8.308;2023-06-10T10:26:16;99883.56;;;26.52;65.38
15634;BME280;14654;48.898;8.308;2023-06-10T10:28:48;99895.00;;;26.52;64.43
15634;BME280;14654;48.898;8.308;2023-06-10T10:31:18;99916.16;;;26.63;64.44
15634;BME280;14654;48.898;8.308;2023-06-10T10:34:00;99888.00;;;26.51;65.02
15634;BME280;14654;48.898;8.308;2023-06-10T10:36:27;99885.38;;;26.84;64.10
15634;BME280;14654;48.898;8.308;2023-06-10T10:38:54;99891.78;;;26.70;63.73
15634;BME280;14654;48.898;8.308;2023-06-10T10:41:20;99888.75;;;26.74;64.44
15634;BME280;14654;48.898;8.308;2023-06-10T10:43:46;99909.63;;;26.79;nan
15634;BME280;14654;48.898;8.308;2023-06-10T10:46:16;99892.44;;;26.62;64.53
15634;BME280;14654;48.898;8.308;2023-06-10T10:48:42;99901.75;;;26.56;64.06
15634;BME280;14654;48.898;8.308;2023-06-10T10:51:09;99902.84;;;26.86;63.39
15634;BME280;14654;48.898;8.308;2023-06-10T10:53:34;99891.66;;;26.71;63.60
15634;BME280;14654;48.898;8.308;2023-06-10T10:58:31;99898.81;;;26.92;63.27
15634;BME280;14654;48.898;8.308;2023-06-10T11:00:57;99876.84;;;27.11;63.34
15634;BME280;14654;48.898;8.308;2023-06-10T11:03:27;99880.81;;;26.96;63.47
15634;BME280;14654;48.898;8.308;2023-06-10T11:05:57;99872.44;;;27.00;62.75
15634;BME280;14654;48.898;8.308;2023-06-10T11:10:57;99886.19;;;27.05;63.62
15634;BME280;14654;48.898;8.308;2023-06-10T11:13:22;99873.09;;;26.92;64.18
15634;BME280;14654;48.898;8.308;2023-06-10T11:15:49;99872.25;;;27.13;63.80
15634;BME280;14654;48.898;8.308;2023-06-10T11:18:28;99879.88;;;27.28;62.82
15634;BME280;14654;48.898;8.308;2023-06-10T11:29:01;99859.25;;;28.23;61.68
15634;BME280;14654;48.898;8.308;2023-06-10T11:31:35;99866.25;;;28.43;61.55
15634;BME280;14654;48.898;8.308;2023-06-10T11:34:04;99864.28;;;28.55;61.68
15634;BME280;14654;48.898;8.308;2023-06-10T11:36:31;99859.22;;;28.72;62.48
15634;BME280;14654;48.898;8.308;2023-06-10T11:38:58;99861.84;;;28.03;64.63
15634;BME280;14654;48.898;8.308;2023-06-10T11:41:25;99867.81;;;27.86;62.98
15634;BME280;14654;48.898;8.308;2023-06-10T11:43:52;99863.16;;;27.68;63.76
15634;BME280;14654;48.898;8.308;2023-06-10T11:46:17;99861.75;;;27.64;64.13
15634;BME280;14654;48.898;8.308;2023-06-10T11:48:51;99862.97;;;28.01;62.76
15634;BME280;14654;48.898;8.308;2023-06-10T11:51:16;99855.66;;;27.93;63.03
15634;BME280;14654;48.898;8.308;2023-06-10T11:53:46;99854.16;;;28.10;63.90
15634;BME280;14654;48.898;8.308;2023-06-10T11:56:11;99848.59;;;28.13;63.50
15634;BME280;14654;48.898;8.308;2023-06-10T11:58:38;99860.38;;;28.20;63.31
15634;BME280;14654;48.898;8.308;2023-06-10T12:01:06;99870.16;;;28.29;63.57
15634;BME280;14654;48.898;8.308;2023-06-10T12:03:38;99847.88;;;28.60;62.77
15634;BME280;14654;48.898;8.308;2023-06-10T12:06:05;99860.78;;;28.74;62.95
15634;BME280;14654;48.898;8.308;2023-06-10T12:08:32;99861.41;;;27.98;62.23
15634;BME280;14654;48.898;8.308;2023-06-10T12:10:57;99858.91;;;28.06;62.43
15634;BME280;14654;48.898;8.308;2023-06-10T12:13:26;99862.19;;;27.79;62.86
15634;BME280;14654;48.898;8.308;2023-06-10T12:15:52;99860.50;;;27.78;63.01
15634;BME280;14654;48.898;8.308;2023-06-10T12:18:23;99852.16;;;27.92;62.11
15634;BME280;14654;48.898;8.308;2023-06-10T12:20:49;99851.63;;;27.98;62.26
15634;BME280;14654;48.898;8.308;2023-06-10T12:23:16;99848.50;;;27.83;61.05
15634;BME280;14654;48.898;8.308;2023-06-10T12:25:54;99850.06;;;27.86;61.96
15634;BME280;14654;48.898;8.308;2023-06-10T12:28:24;99839.09;;;27.69;62.04
15634;BME280;14654;48.898;8.308;2023-06-10T12:30:50;99832.34;;;28.16;61.63
15634;BME280;14654;48.898;8.308;2023-06-10T12:33:16;99830.66;;;28.54;61.39
15634;BME280;14654;48.898;8.308;2023-06-10T12:35:48;99841.56;;;28.61;59.37
15634;BME280;14654;48.898;8.308;2023-06-10T12:38:13;99828.84;;;28.16;61.02
15634;BME280;14654;48.898;8.308;2023-06-10T12:40:39;99838.34;;;28.08;61.63
15634;BME280;14654;48.898;8.308;2023-06-10T12:43:07;99838.78;;;28.43;60.89
15634;BME280;14654;48.898;8.308;2023-06-10T12:45:35;99835.84;;;28.36;60.89
15634;BME280;14654;48.898;8.308;2023-06-10T12:50:44;99841.44;;;28.63;61.91
15634;BME280;14654;48.898;8.308;2023-06-10T12:53:11;99831.09;;;28.79;61.77
15634;BME280;14654;48.898;8.308;2023-06-10T12:55:37;99832.88;;;28.59;61.24
15634;BME280;14654;48.898;8.308;2023-06-10T12:58:02;99838.50;;;28.66;62.41
15634;BME280;14654;48.898;8.308;2023-06-10T13:00:28;99831.94;;;28.50;62.76
15634;BME280;14654;48.898;8.308;2023-06-10T13:02:55;99829.66;;;28.45;62.31
15634;BME280;14654;48.898;8.308;2023-06-10T13:05:20;99819.88;;;28.36;61.72
15634;BME280;14654;48.898;8.308;2023-06-10T13:07:46;99824.09;;;28.19;62.19
15634;BME280;14654;48.898;8.308;2023-06-10T13:10:13;99826.34;;;28.24;62.52
15634;BME280;14654;48.898;8.308;2023-06-10T13:12:39;99814.28;;;28.20;61.88
15634;BME280;14654;48.898;8.308;2023-06-10T13:15:05;99816.94;;;28.29;61.89
15634;BME280;14654;48.898;8.308;2023-06-10T13:17:30;99814.00;;;28.23;62.28
15634;BME280;14654;48.898;8.308;2023-06-10T13:19:55;99805.59;;;28.27;61.95